sensor_id;sensor_type;location;lat;lon;timestamp;P1;durP1;ratioP1;P2;durP2;ratioP2
63089;SDS011;49174;43.198;27.824;2022-10-31T04:55:52;23.52;;;13.25;;
63089;SDS011;49174;43.198;27.824;2022-10-31T04:58:18;16.95;;;10.90;;
63089;SDS011;49174;43.198;27.824;2022-10-31T05:00:43;18.15;;;10.23;;
63089;SDS011;49174;43.198;27.824;2022-10-31T05:03:09;28.98;;;11.90;;
63089;SDS011;49174;43.198;27.824;2022-10-31T05:05:34;27.67;;;11.73;;
63089;SDS011;49174;43.198;27.824;2022-10-31T05:08:00;16.58;;;11.60;;
63089;SDS011;49174;43.198;27.824;2022-10-31T05:10:26;17.25;;;11.30;;
63089;SDS011;49174;43.198;27.824;2022-10-31T05:13:03;16.27;;;10.18;;
63089;SDS011;49174;43.198;27.824;2022-10-31T05:15:29;22.73;;;11.65;;
63089;SDS011;49174;43.198;27.824;2022-10-31T05:17:56;20.77;;;10.30;;
63089;SDS011;49174;43.198;27.824;2022-10-31T05:20:23;20.52;;;12.07;;
63089;SDS011;49174;43.198;27.824;2022-10-31T05:22:51;19.48;;;12.05;;
63089;SDS011;49174;43.198;27.824;2022-10-31T05:25:18;16.38;;;10.73;;
63089;SDS011;49174;43.198;27.824;2022-10-31T05:27:46;19.40;;;9.65;;
63089;SDS011;49174;43.198;27.824;2022-10-31T05:30:14;17.77;;;11.43;;
63089;SDS011;49174;43.198;27.824;2022-10-31T05:32:42;21.40;;;11.35;;
63089;SDS011;49174;43.198;27.824;2022-10-31T05:35:10;18.08;;;11.95;;
63089;SDS011;49174;43.198;27.824;2022-10-31T05:37:41;20.00;;;11.02;;
63089;SDS011;49174;43.198;27.824;2022-10-31T05:40:07;20.77;;;11.18;;
63089;SDS011;49174;43.198;27.824;2022-10-31T05:42:35;38.80;;;22.98;;
63089;SDS011;49174;43.198;27.824;2022-10-31T05:45:02;38.80;;;24.25;;
63089;SDS011;49174;43.198;27.824;2022-10-31T05:47:28;36.55;;;24.73;;
63089;SDS011;49174;43.198;27.824;2022-10-31T05:49:56;38.53;;;23.10;;
63089;SDS011;49174;43.198;27.824;2022-10-31T05:52:21;34.13;;;16.73;;
63089;SDS011;49174;43.198;27.824;2022-10-31T05:54:47;26.58;;;14.68;;
63089;SDS011;49174;43.198;27.824;2022-10-31T05:57:12;20.95;;;12.32;;
63089;SDS011;49174;43.198;27.824;2022-10-31T05:59:38;101.03;;;53.58;;
63089;SDS011;49174;43.198;27.824;2022-10-31T06:02:04;29.20;;;16.08;;
63089;SDS011;49174;43.198;27.824;2022-10-31T06:04:30;27.10;;;14.68;;
63089;SDS011;49174;43.198;27.824;2022-10-31T06:06:56;25.20;;;15.65;;
63089;SDS011;49174;43.198;27.824;2022-10-31T06:09:22;31.48;;;17.45;;
63089;SDS011;49174;43.198;27.824;2022-10-31T06:11:47;30.27;;;17.27;;
63089;SDS011;49174;43.198;27.824;2022-10-31T06:14:13;36.90;;;23.02;;
63089;SDS011;49174;43.198;27.824;2022-10-31T06:16:39;31.35;;;20.73;;
63089;SDS011;49174;43.198;27.824;2022-10-31T06:19:04;26.58;;;18.88;;
63089;SDS011;49174;43.198;27.824;2022-10-31T06:21:30;26.92;;;17.10;;
63089;SDS011;49174;43.198;27.824;2022-10-31T06:23:55;26.95;;;18.80;;
63089;SDS011;49174;43.198;27.824;2022-10-31T06:26:21;29.80;;;19.10;;
63089;SDS011;49174;43.198;27.824;2022-10-31T06:28:46;29.63;;;19.05;;
63089;SDS011;49174;43.198;27.824;2022-10-31T06:31:12;29.67;;;19.90;;
63089;SDS011;49174;43.198;27.824;2022-10-31T06:33:38;31.77;;;20.52;;
63089;SDS011;49174;43.198;27.824;2022-10-31T06:36:05;31.52;;;20.20;;
63089;SDS011;49174;43.198;27.824;2022-10-31T06:38:31;29.67;;;19.83;;
63089;SDS011;49174;43.198;27.824;2022-10-31T06:40:56;32.10;;;20.05;;
63089;SDS011;49174;43.198;27.824;2022-10-31T06:43:22;26.05;;;18.15;;
63089;SDS011;49174;43.198;27.824;2022-10-31T06:45:48;29.42;;;17.25;;
63089;SDS011;49174;43.198;27.824;2022-10-31T06:48:13;23.30;;;15.45;;
63089;SDS011;49174;43.198;27.824;2022-10-31T06:50:39;27.48;;;15.20;;
63089;SDS011;49174;43.198;27.824;2022-10-31T06:53:05;26.77;;;14.85;;
63089;SDS011;49174;43.198;27.824;2022-10-31T06:55:30;19.67;;;13.55;;
63089;SDS011;49174;43.198;27.824;2022-10-31T06:57:57;20.27;;;12.18;;
63089;SDS011;49174;43.198;27.824;2022-10-31T07:00:24;18.73;;;13.00;;
63089;SDS011;49174;43.198;27.824;2022-10-31T07:02:52;18.10;;;11.82;;
63089;SDS011;49174;43.198;27.824;2022-10-31T07:05:31;19.15;;;12.18;;
63089;SDS011;49174;43.198;27.824;2022-10-31T07:07:58;21.15;;;12.02;;
63089;SDS011;49174;43.198;27.824;2022-10-31T07:10:29;26.63;;;12.45;;
63089;SDS011;49174;43.198;27.824;2022-10-31T07:12:57;20.88;;;11.00;;
63089;SDS011;49174;43.198;27.824;2022-10-31T07:15:24;17.17;;;12.20;;
63089;SDS011;49174;43.198;27.824;2022-10-31T07:17:51;18.33;;;11.25;;
63089;SDS011;49174;43.198;27.824;2022-10-31T07:20:17;31.20;;;12.25;;
63089;SDS011;49174;43.198;27.824;2022-10-31T07:22:43;24.60;;;10.75;;
63089;SDS011;49174;43.198;27.824;2022-10-31T07:25:09;20.70;;;10.13;;
63089;SDS011;49174;43.198;27.824;2022-10-31T07:27:36;17.60;;;10.32;;
63089;SDS011;49174;43.198;27.824;2022-10-31T07:30:05;16.02;;;9.30;;
63089;SDS011;49174;43.198;27.824;2022-10-31T07:32:48;19.52;;;10.40;;
63089;SDS011;49174;43.198;27.824;2022-10-31T07:35:16;21.13;;;9.77;;
63089;SDS011;49174;43.198;27.824;2022-10-31T07:37:43;23.60;;;10.32;;
63089;SDS011;49174;43.198;27.824;2022-10-31T07:40:09;27.35;;;10.73;;
63089;SDS011;49174;43.198;27.824;2022-10-31T07:42:39;22.75;;;10.15;;
63089;SDS011;49174;43.198;27.824;2022-10-31T07:45:07;46.28;;;13.23;;
63089;SDS011;49174;43.198;27.824;2022-10-31T07:48:09;35.08;;;13.40;;
63089;SDS011;49174;43.198;27.824;2022-10-31T07:50:28;34.22;;;22.70;;
63089;SDS011;49174;43.198;27.824;2022-10-31T07:55:25;38.67;;;26.42;;
63089;SDS011;49174;43.198;27.824;2022-10-31T07:57:55;22.23;;;14.73;;
63089;SDS011;49174;43.198;27.824;2022-10-31T08:00:42;17.80;;;12.70;;
63089;SDS011;49174;43.198;27.824;2022-10-31T08:03:10;17.48;;;11.48;;
63089;SDS011;49174;43.198;27.824;2022-10-31T08:05:37;22.48;;;13.05;;
63089;SDS011;49174;43.198;27.824;2022-10-31T08:08:04;15.82;;;11.93;;
63089;SDS011;49174;43.198;27.824;2022-10-31T08:10:31;17.13;;;11.35;;
63089;SDS011;49174;43.198;27.824;2022-10-31T08:15:22;14.63;;;10.00;;
63089;SDS011;49174;43.198;27.824;2022-10-31T08:17:48;16.90;;;10.77;;
63089;SDS011;49174;43.198;27.824;2022-10-31T08:20:14;14.85;;;10.52;;
63089;SDS011;49174;43.198;27.824;2022-10-31T08:22:39;16.08;;;10.02;;
63089;SDS011;49174;43.198;27.824;2022-10-31T08:25:05;16.55;;;10.93;;
63089;SDS011;49174;43.198;27.824;2022-10-31T08:27:31;16.92;;;10.90;;
63089;SDS011;49174;43.198;27.824;2022-10-31T08:29:56;18.55;;;9.70;;
63089;SDS011;49174;43.198;27.824;2022-10-31T08:32:22;13.13;;;10.02;;
63089;SDS011;49174;43.198;27.824;2022-10-31T08:34:47;16.35;;;10.90;;
63089;SDS011;49174;43.198;27.824;2022-10-31T08:37:13;16.10;;;11.00;;
63089;SDS011;49174;43.198;27.824;2022-10-31T08:39:43;11.73;;;8.73;;
63089;SDS011;49174;43.198;27.824;2022-10-31T08:42:09;13.63;;;9.82;;
63089;SDS011;49174;43.198;27.824;2022-10-31T08:44:34;18.85;;;9.25;;
63089;SDS011;49174;43.198;27.824;2022-10-31T08:47:00;16.95;;;8.57;;
63089;SDS011;49174;43.198;27.824;2022-10-31T08:49:25;14.95;;;10.30;;
63089;SDS011;49174;43.198;27.824;2022-10-31T08:51:52;13.05;;;9.40;;
63089;SDS011;49174;43.198;27.824;2022-10-31T08:54:17;14.75;;;9.27;;
63089;SDS011;49174;43.198;27.824;2022-10-31T08:56:44;15.75;;;9.20;;
63089;SDS011;49174;43.198;27.824;2022-10-31T08:59:10;15.13;;;10.27;;
63089;SDS011;49174;43.198;27.824;2022-10-31T09:01:35;15.30;;;8.95;;
63089;SDS011;49174;43.198;27.824;2022-10-31T09:04:01;16.17;;;10.13;;
63089;SDS011;49174;43.198;27.824;2022-10-31T09:06:29;13.95;;;8.75;;
63089;SDS011;49174;43.198;27.824;2022-10-31T09:08:54;12.98;;;8.88;;
63089;SDS011;49174;43.198;27.824;2022-10-31T09:11:20;13.25;;;8.43;;
63089;SDS011;49174;43.198;27.824;2022-10-31T09:13:45;15.23;;;8.77;;
63089;SDS011;49174;43.198;27.824;2022-10-31T09:16:11;11.10;;;8.15;;
63089;SDS011;49174;43.198;27.824;2022-10-31T09:18:36;12.02;;;8.18;;
63089;SDS011;49174;43.198;27.824;2022-10-31T09:21:02;13.60;;;8.48;;
63089;SDS011;49174;43.198;27.824;2022-10-31T09:23:28;19.40;;;11.88;;
63089;SDS011;49174;43.198;27.824;2022-10-31T09:25:53;27.00;;;15.88;;
63089;SDS011;49174;43.198;27.824;2022-10-31T09:28:20;14.68;;;10.35;;
63089;SDS011;49174;43.198;27.824;2022-10-31T09:30:49;14.95;;;8.95;;
63089;SDS011;49174;43.198;27.824;2022-10-31T09:33:16;15.20;;;8.23;;
63089;SDS011;49174;43.198;27.824;2022-10-31T09:35:43;10.15;;;7.10;;
63089;SDS011;49174;43.198;27.824;2022-10-31T09:38:12;9.38;;;7.13;;
63089;SDS011;49174;43.198;27.824;2022-10-31T09:40:41;13.88;;;7.72;;
63089;SDS011;49174;43.198;27.824;2022-10-31T09:56:22;31.92;;;22.45;;
63089;SDS011;49174;43.198;27.824;2022-10-31T09:58:55;11.40;;;8.38;;
63089;SDS011;49174;43.198;27.824;2022-10-31T10:06:53;11.52;;;7.55;;
63089;SDS011;49174;43.198;27.824;2022-10-31T10:09:20;10.05;;;7.45;;
63089;SDS011;49174;43.198;27.824;2022-10-31T10:14:46;11.82;;;5.53;;
63089;SDS011;49174;43.198;27.824;2022-10-31T10:17:51;10.73;;;5.90;;
63089;SDS011;49174;43.198;27.824;2022-10-31T10:20:29;8.00;;;5.63;;
63089;SDS011;49174;43.198;27.824;2022-10-31T10:26:21;8.50;;;5.80;;
63089;SDS011;49174;43.198;27.824;2022-10-31T10:28:54;6.45;;;5.28;;
63089;SDS011;49174;43.198;27.824;2022-10-31T10:31:39;6.35;;;4.60;;
63089;SDS011;49174;43.198;27.824;2022-10-31T10:34:18;10.20;;;5.22;;
63089;SDS011;49174;43.198;27.824;2022-10-31T10:36:58;8.77;;;5.50;;
63089;SDS011;49174;43.198;27.824;2022-10-31T10:41:57;10.00;;;5.03;;
63089;SDS011;49174;43.198;27.824;2022-10-31T10:44:44;6.53;;;4.72;;
63089;SDS011;49174;43.198;27.824;2022-10-31T10:47:35;9.57;;;4.80;;
63089;SDS011;49174;43.198;27.824;2022-10-31T10:50:09;8.15;;;5.35;;
63089;SDS011;49174;43.198;27.824;2022-10-31T10:52:50;6.93;;;5.03;;
63089;SDS011;49174;43.198;27.824;2022-10-31T10:55:43;11.18;;;4.32;;
63089;SDS011;49174;43.198;27.824;2022-10-31T10:58:16;10.32;;;4.53;;
63089;SDS011;49174;43.198;27.824;2022-10-31T11:00:42;5.60;;;4.20;;
63089;SDS011;49174;43.198;27.824;2022-10-31T11:03:13;8.30;;;4.95;;
63089;SDS011;49174;43.198;27.824;2022-10-31T11:05:52;7.07;;;4.65;;
63089;SDS011;49174;43.198;27.824;2022-10-31T11:08:25;7.57;;;4.60;;
63089;SDS011;49174;43.198;27.824;2022-10-31T11:13:52;7.10;;;4.25;;
63089;SDS011;49174;43.198;27.824;2022-10-31T11:18:51;8.93;;;4.68;;
63089;SDS011;49174;43.198;27.824;2022-10-31T11:21:21;7.15;;;4.53;;
63089;SDS011;49174;43.198;27.824;2022-10-31T11:23:50;8.73;;;4.88;;
63089;SDS011;49174;43.198;27.824;2022-10-31T11:26:27;7.95;;;5.18;;
63089;SDS011;49174;43.198;27.824;2022-10-31T11:28:56;9.55;;;4.43;;
63089;SDS011;49174;43.198;27.824;2022-10-31T11:31:23;7.45;;;4.75;;
63089;SDS011;49174;43.198;27.824;2022-10-31T11:33:52;7.28;;;4.82;;
63089;SDS011;49174;43.198;27.824;2022-10-31T11:36:27;6.63;;;4.53;;
63089;SDS011;49174;43.198;27.824;2022-10-31T11:38:56;8.48;;;4.53;;
63089;SDS011;49174;43.198;27.824;2022-10-31T11:41:32;9.00;;;4.45;;
63089;SDS011;49174;43.198;27.824;2022-10-31T11:47:01;8.93;;;5.07;;
63089;SDS011;49174;43.198;27.824;2022-10-31T11:49:31;9.77;;;5.05;;
63089;SDS011;49174;43.198;27.824;2022-10-31T11:51:58;8.68;;;5.07;;
63089;SDS011;49174;43.198;27.824;2022-10-31T11:54:35;7.78;;;4.45;;
63089;SDS011;49174;43.198;27.824;2022-10-31T12:00:20;9.48;;;5.25;;
63089;SDS011;49174;43.198;27.824;2022-10-31T12:05:58;7.15;;;4.50;;
63089;SDS011;49174;43.198;27.824;2022-10-31T12:08:29;10.10;;;4.85;;
63089;SDS011;49174;43.198;27.824;2022-10-31T12:11:10;9.57;;;4.70;;
63089;SDS011;49174;43.198;27.824;2022-10-31T12:22:36;8.82;;;5.72;;
63089;SDS011;49174;43.198;27.824;2022-10-31T12:41:52;10.80;;;6.05;;
63089;SDS011;49174;43.198;27.824;2022-10-31T12:58:24;8.65;;;4.97;;
63089;SDS011;49174;43.198;27.824;2022-10-31T13:01:16;6.47;;;4.38;;
63089;SDS011;49174;43.198;27.824;2022-10-31T13:06:32;10.30;;;5.38;;
63089;SDS011;49174;43.198;27.824;2022-10-31T13:09:05;9.70;;;5.00;;
63089;SDS011;49174;43.198;27.824;2022-10-31T13:16:45;7.40;;;4.90;;
63089;SDS011;49174;43.198;27.824;2022-10-31T13:19:23;9.02;;;5.10;;
63089;SDS011;49174;43.198;27.824;2022-10-31T13:24:36;9.25;;;4.68;;
63089;SDS011;49174;43.198;27.824;2022-10-31T13:27:13;10.60;;;5.50;;
63089;SDS011;49174;43.198;27.824;2022-10-31T13:29:46;10.25;;;4.97;;
63089;SDS011;49174;43.198;27.824;2022-10-31T13:32:15;9.38;;;4.60;;
63089;SDS011;49174;43.198;27.824;2022-10-31T13:34:46;9.55;;;5.07;;
63089;SDS011;49174;43.198;27.824;2022-10-31T13:50:43;71.65;;;7.80;;
63089;SDS011;49174;43.198;27.824;2022-10-31T13:53:21;12.98;;;5.25;;
63089;SDS011;49174;43.198;27.824;2022-10-31T13:56:02;16.88;;;5.78;;
63089;SDS011;49174;43.198;27.824;2022-10-31T13:58:38;12.02;;;4.60;;
63089;SDS011;49174;43.198;27.824;2022-10-31T14:03:56;7.75;;;4.45;;
63089;SDS011;49174;43.198;27.824;2022-10-31T14:06:41;6.85;;;4.53;;
63089;SDS011;49174;43.198;27.824;2022-10-31T14:09:22;9.02;;;4.93;;
63089;SDS011;49174;43.198;27.824;2022-10-31T14:11:51;7.25;;;4.97;;
63089;SDS011;49174;43.198;27.824;2022-10-31T14:14:18;6.95;;;4.72;;
63089;SDS011;49174;43.198;27.824;2022-10-31T14:16:51;9.60;;;4.18;;
63089;SDS011;49174;43.198;27.824;2022-10-31T14:19:20;8.75;;;4.93;;
63089;SDS011;49174;43.198;27.824;2022-10-31T14:21:47;9.50;;;4.93;;
63089;SDS011;49174;43.198;27.824;2022-10-31T14:24:15;6.50;;;4.55;;
63089;SDS011;49174;43.198;27.824;2022-10-31T14:27:32;9.00;;;5.35;;
63089;SDS011;49174;43.198;27.824;2022-10-31T14:29:51;9.25;;;4.88;;
63089;SDS011;49174;43.198;27.824;2022-10-31T14:40:48;9.30;;;5.18;;
63089;SDS011;49174;43.198;27.824;2022-10-31T14:51:00;6.88;;;4.93;;
63089;SDS011;49174;43.198;27.824;2022-10-31T14:53:34;7.50;;;4.80;;
63089;SDS011;49174;43.198;27.824;2022-10-31T14:56:08;7.95;;;5.20;;
63089;SDS011;49174;43.198;27.824;2022-10-31T14:58:43;11.95;;;4.95;;
63089;SDS011;49174;43.198;27.824;2022-10-31T15:01:24;7.43;;;5.40;;
63089;SDS011;49174;43.198;27.824;2022-10-31T15:04:04;10.65;;;4.82;;
63089;SDS011;49174;43.198;27.824;2022-10-31T15:06:44;10.25;;;5.03;;
63089;SDS011;49174;43.198;27.824;2022-10-31T15:11:48;8.40;;;4.80;;
63089;SDS011;49174;43.198;27.824;2022-10-31T15:14:27;9.10;;;5.40;;
63089;SDS011;49174;43.198;27.824;2022-10-31T15:16:56;8.88;;;4.97;;
63089;SDS011;49174;43.198;27.824;2022-10-31T15:19:24;9.18;;;4.65;;
63089;SDS011;49174;43.198;27.824;2022-10-31T15:21:53;10.07;;;5.47;;
63089;SDS011;49174;43.198;27.824;2022-10-31T15:24:22;9.30;;;5.65;;
63089;SDS011;49174;43.198;27.824;2022-10-31T15:26:50;9.35;;;5.40;;
63089;SDS011;49174;43.198;27.824;2022-10-31T15:29:18;9.27;;;5.53;;
63089;SDS011;49174;43.198;27.824;2022-10-31T15:31:49;15.48;;;7.47;;
63089;SDS011;49174;43.198;27.824;2022-10-31T15:34:19;13.52;;;5.65;;
63089;SDS011;49174;43.198;27.824;2022-10-31T15:36:50;11.07;;;5.63;;
63089;SDS011;49174;43.198;27.824;2022-10-31T15:39:16;10.60;;;5.90;;
63089;SDS011;49174;43.198;27.824;2022-10-31T15:41:49;10.90;;;6.43;;
63089;SDS011;49174;43.198;27.824;2022-10-31T15:44:19;17.13;;;6.70;;
63089;SDS011;49174;43.198;27.824;2022-10-31T15:46:53;13.60;;;6.03;;
63089;SDS011;49174;43.198;27.824;2022-10-31T15:49:26;10.98;;;5.50;;
63089;SDS011;49174;43.198;27.824;2022-10-31T15:52:14;13.25;;;5.72;;
63089;SDS011;49174;43.198;27.824;2022-10-31T15:54:45;17.25;;;6.88;;
63089;SDS011;49174;43.198;27.824;2022-10-31T15:57:13;11.38;;;5.88;;
63089;SDS011;49174;43.198;27.824;2022-10-31T15:59:40;13.00;;;6.70;;
63089;SDS011;49174;43.198;27.824;2022-10-31T16:02:11;12.20;;;6.35;;
63089;SDS011;49174;43.198;27.824;2022-10-31T16:04:47;8.93;;;6.22;;
63089;SDS011;49174;43.198;27.824;2022-10-31T16:07:16;11.35;;;6.32;;
63089;SDS011;49174;43.198;27.824;2022-10-31T16:09:50;11.57;;;5.70;;
63089;SDS011;49174;43.198;27.824;2022-10-31T16:12:18;13.23;;;6.82;;
63089;SDS011;49174;43.198;27.824;2022-10-31T16:14:44;13.55;;;5.78;;
63089;SDS011;49174;43.198;27.824;2022-10-31T16:17:11;10.45;;;5.35;;
63089;SDS011;49174;43.198;27.824;2022-10-31T16:19:45;12.85;;;7.32;;
63089;SDS011;49174;43.198;27.824;2022-10-31T16:27:37;10.52;;;5.30;;
63089;SDS011;49174;43.198;27.824;2022-10-31T16:33:20;8.88;;;6.35;;
63089;SDS011;49174;43.198;27.824;2022-10-31T16:35:49;12.43;;;6.13;;
63089;SDS011;49174;43.198;27.824;2022-10-31T16:38:15;13.52;;;6.30;;
63089;SDS011;49174;43.198;27.824;2022-10-31T16:40:41;16.55;;;6.85;;
63089;SDS011;49174;43.198;27.824;2022-10-31T16:43:14;13.55;;;6.28;;
63089;SDS011;49174;43.198;27.824;2022-10-31T16:45:43;13.80;;;6.97;;
63089;SDS011;49174;43.198;27.824;2022-10-31T16:48:14;15.02;;;8.55;;
63089;SDS011;49174;43.198;27.824;2022-10-31T16:50:42;18.33;;;8.15;;
63089;SDS011;49174;43.198;27.824;2022-10-31T16:53:09;12.23;;;6.97;;
